Time;durP1;ratioP1;P1;durP2;ratioP2;P2;SDS_P1;SDS_P2;PMS_P1;PMS_P2;Temp;Humidity;BMP_temperature;BMP_pressure;BME280_temperature;BME280_humidity;BME280_pressure;Samples;Min_cycle;Max_cycle;Signal;HPM_P1;HPM_P2
2022/01/12 00:01:56;;;;;;;0.43;0.43;;;-0.90;84.90;;;;;;5056254;28;20190;-78
2022/01/12 00:04:22;;;;;;;1.37;1.27;;;-0.90;85.20;;;;;;5053327;28;20566;-80
2022/01/12 00:06:47;;;;;;;1.50;0.97;;;-1.00;85.10;;;;;;5053530;28;20232;-79
2022/01/12 00:09:14;;;;;;;0.80;0.80;;;-1.00;85.30;;;;;;5054561;28;20214;-79
2022/01/12 00:11:40;;;;;;;1.70;1.07;;;-1.10;85.30;;;;;;5054357;28;20196;-79
2022/01/12 00:14:06;;;;;;;0.87;0.87;;;-1.10;85.40;;;;;;5053235;28;20184;-78
2022/01/12 00:16:32;;;;;;;1.57;1.10;;;-1.10;85.50;;;;;;5052431;28;20198;-78
2022/01/12 00:18:58;;;;;;;0.93;0.93;;;-1.10;85.60;;;;;;5051730;28;20191;-78
2022/01/12 00:21:24;;;;;;;0.77;0.77;;;-1.10;85.80;;;;;;5052726;28;20179;-78
2022/01/12 00:23:50;;;;;;;0.50;0.50;;;-1.20;85.90;;;;;;5057987;28;20178;-79
2022/01/12 00:34:41;;;;;;;0.93;0.93;;;-1.20;86.20;;;;;;5017283;28;20311;-79
2022/01/12 00:37:07;;;;;;;0.70;0.60;;;-1.20;86.20;;;;;;5019496;28;20196;-79
2022/01/12 00:39:32;;;;;;;0.50;0.50;;;-1.20;86.10;;;;;;5015649;28;20761;-78
2022/01/12 00:41:58;;;;;;;1.63;0.77;;;-1.20;86.10;;;;;;5012942;28;20187;-78
2022/01/12 00:44:31;;;;;;;0.50;0.50;;;-1.20;86.10;;;;;;5019575;28;20218;-78
2022/01/12 00:46:57;;;;;;;0.50;0.50;;;-1.20;86.10;;;;;;5020728;28;20224;-78
2022/01/12 00:49:23;;;;;;;1.33;1.23;;;-1.20;86.00;;;;;;4995525;28;20219;-77
2022/01/12 00:51:54;;;;;;;0.40;0.40;;;-1.20;86.10;;;;;;5017508;28;20197;-78
2022/01/12 00:54:20;;;;;;;1.90;0.67;;;-1.20;86.10;;;;;;5002329;28;20279;-78
2022/01/12 00:56:46;;;;;;;0.90;0.90;;;-1.20;86.10;;;;;;5014269;28;20200;-78
2022/01/12 00:59:11;;;;;;;1.80;0.93;;;-1.20;86.10;;;;;;5016029;28;20242;-78
2022/01/12 01:01:37;;;;;;;0.70;0.70;;;-1.20;86.10;;;;;;5013406;28;20644;-78
2022/01/12 01:04:03;;;;;;;0.60;0.60;;;-1.20;86.00;;;;;;5016600;28;20187;-79
2022/01/12 01:06:31;;;;;;;0.60;0.60;;;-1.10;85.90;;;;;;5049958;28;20233;-79
2022/01/12 01:08:57;;;;;;;0.40;0.40;;;-1.10;86.00;;;;;;5048852;28;20256;-79
2022/01/12 01:11:23;;;;;;;0.40;0.40;;;-1.10;86.00;;;;;;5043647;28;20176;-78
2022/01/12 01:14:01;;;;;;;0.40;0.40;;;-1.10;85.90;;;;;;5049707;28;20190;-78
2022/01/12 01:27:26;;;;;;;0.33;0.33;;;-1.00;85.60;;;;;;5050220;28;20234;-79
2022/01/12 01:29:54;;;;;;;0.90;0.87;;;-1.00;85.30;;;;;;5047865;28;20628;-78
2022/01/12 01:32:21;;;;;;;0.67;0.67;;;-1.10;85.20;;;;;;5037917;28;20187;-77
2022/01/12 01:34:48;;;;;;;0.50;0.50;;;-1.10;85.30;;;;;;5043994;28;20183;-78
2022/01/12 01:37:15;;;;;;;0.57;0.57;;;-1.10;85.30;;;;;;5046682;28;20222;-77
2022/01/12 01:39:40;;;;;;;0.60;0.60;;;-1.10;85.40;;;;;;5050289;28;20605;-78
2022/01/12 01:42:17;;;;;;;1.30;0.80;;;-1.00;85.30;;;;;;5046803;28;20229;-77
2022/01/12 01:55:28;;;;;;;0.60;0.60;;;-1.00;85.20;;;;;;5044275;28;20211;-79
2022/01/12 01:57:53;;;;;;;1.00;1.00;;;-1.00;85.00;;;;;;5054341;28;20672;-79
2022/01/12 02:00:23;;;;;;;2.00;0.63;;;-1.00;84.90;;;;;;5051805;28;20192;-79
2022/01/12 02:02:50;;;;;;;1.13;0.93;;;-1.00;84.80;;;;;;5054169;28;20175;-79
2022/01/12 02:05:16;;;;;;;1.17;1.07;;;-1.00;84.70;;;;;;5053927;28;20175;-79
2022/01/12 02:07:43;;;;;;;2.00;1.17;;;-1.00;84.80;;;;;;5047980;28;20763;-79
2022/01/12 02:10:09;;;;;;;9.37;1.00;;;-1.00;84.70;;;;;;5047685;28;20195;-79
2022/01/12 02:12:36;;;;;;;0.70;0.70;;;-1.00;84.70;;;;;;5056094;28;20191;-79
2022/01/12 02:15:02;;;;;;;0.43;0.43;;;-1.00;84.80;;;;;;5050812;28;20183;-78
2022/01/12 02:17:37;;;;;;;1.20;0.90;;;-1.10;84.60;;;;;;5050605;28;20685;-78
2022/01/12 02:36:26;;;;;;;0.57;0.57;;;-1.10;84.20;;;;;;5055441;28;20202;-78
2022/01/12 02:41:40;;;;;;;0.60;0.60;;;-1.10;84.00;;;;;;5056479;28;20202;-76
2022/01/12 02:54:49;;;;;;;0.57;0.57;;;-1.20;84.10;;;;;;5056922;28;20241;-78
2022/01/12 02:57:15;;;;;;;0.80;0.80;;;-1.20;84.10;;;;;;5061933;28;20655;-78
2022/01/12 03:00:01;;;;;;;0.70;0.70;;;-1.20;84.20;;;;;;5050345;28;20211;-78
2022/01/12 03:02:37;;;;;;;2.13;1.00;;;-1.30;84.10;;;;;;5054400;28;20249;-79
2022/01/12 03:07:40;;;;;;;0.37;0.37;;;-1.30;84.10;;;;;;5056937;28;20247;-79
2022/01/12 03:10:09;;;;;;;2.13;1.07;;;-1.30;84.10;;;;;;5057025;28;20915;-78
2022/01/12 03:12:42;;;;;;;0.60;0.60;;;-1.30;84.00;;;;;;5058934;28;20190;-78
2022/01/12 03:15:08;;;;;;;0.70;0.70;;;-1.30;84.00;;;;;;5055936;28;20191;-79
2022/01/12 03:17:34;;;;;;;0.90;0.90;;;-1.30;84.10;;;;;;5063299;28;20194;-79
2022/01/12 03:20:01;;;;;;;1.20;0.40;;;-1.30;83.90;;;;;;5059191;28;20179;-79
2022/01/12 03:22:26;;;;;;;1.00;1.00;;;-1.30;84.00;;;;;;5063660;28;20214;-79
2022/01/12 03:24:52;;;;;;;1.40;1.37;;;-1.30;84.00;;;;;;5051494;28;20184;-79
2022/01/12 03:27:18;;;;;;;1.03;1.00;;;-1.30;83.90;;;;;;5060049;28;20212;-79
2022/01/12 03:29:49;;;;;;;2.43;0.90;;;-1.40;84.00;;;;;;5055299;28;20274;-79
2022/01/12 03:32:18;;;;;;;1.20;1.10;;;-1.40;84.00;;;;;;5049375;28;20197;-79
2022/01/12 03:34:53;;;;;;;0.40;0.40;;;-1.40;84.20;;;;;;5051823;28;20210;-79
2022/01/12 03:39:53;;;;;;;1.17;0.50;;;-1.40;83.90;;;;;;5048828;28;20190;-78
2022/01/12 03:42:19;;;;;;;0.53;0.53;;;-1.30;83.70;;;;;;5050022;28;20592;-78
2022/01/12 03:44:45;;;;;;;1.23;0.80;;;-1.30;83.60;;;;;;5054542;28;20184;-78
2022/01/12 03:47:11;;;;;;;0.97;0.83;;;-1.30;83.60;;;;;;5054770;28;20211;-79
2022/01/12 03:49:36;;;;;;;0.37;0.37;;;-1.30;83.50;;;;;;5054890;28;20183;-77
2022/01/12 03:52:03;;;;;;;0.80;0.80;;;-1.30;83.60;;;;;;5057181;28;20237;-78
2022/01/12 03:54:28;;;;;;;0.50;0.50;;;-1.30;83.70;;;;;;5054184;28;20187;-78
2022/01/12 03:56:54;;;;;;;3.60;0.73;;;-1.30;83.70;;;;;;5061094;28;20215;-80
2022/01/12 03:59:20;;;;;;;0.40;0.40;;;-1.30;83.50;;;;;;5051980;28;20187;-79
2022/01/12 04:01:46;;;;;;;1.53;0.77;;;-1.20;83.30;;;;;;5055821;28;20179;-78
2022/01/12 04:04:19;;;;;;;1.50;0.83;;;-1.30;83.20;;;;;;5060557;28;20192;-79
2022/01/12 04:09:28;;;;;;;0.80;0.80;;;-1.20;83.70;;;;;;5058416;28;20190;-78
2022/01/12 04:11:54;;;;;;;0.80;0.80;;;-1.20;83.60;;;;;;5053528;28;20172;-78
2022/01/12 04:14:20;;;;;;;1.40;0.77;;;-1.20;83.50;;;;;;5049351;28;20187;-79
2022/01/12 04:16:46;;;;;;;1.93;0.70;;;-1.20;83.30;;;;;;5053276;28;20196;-78
2022/01/12 04:19:12;;;;;;;1.00;1.00;;;-1.10;83.10;;;;;;5051703;28;20218;-79
2022/01/12 04:21:43;;;;;;;0.67;0.63;;;-1.10;83.20;;;;;;5052949;28;20617;-78
2022/01/12 04:24:09;;;;;;;0.90;0.90;;;-1.10;83.20;;;;;;5051126;28;20218;-78
2022/01/12 04:26:35;;;;;;;0.43;0.43;;;-1.10;83.30;;;;;;5060291;28;20326;-78
2022/01/12 04:29:02;;;;;;;1.07;1.00;;;-1.10;83.10;;;;;;5055222;28;20591;-79
2022/01/12 04:31:28;;;;;;;0.70;0.70;;;-1.10;83.00;;;;;;5060082;28;20873;-78
2022/01/12 04:33:53;;;;;;;0.87;0.87;;;-1.10;82.70;;;;;;5049927;28;20187;-78
2022/01/12 04:36:19;;;;;;;1.37;1.10;;;-1.10;82.60;;;;;;5071754;28;20183;-78
2022/01/12 04:38:45;;;;;;;0.80;0.80;;;-1.10;82.50;;;;;;5053366;28;20186;-78
2022/01/12 04:41:12;;;;;;;0.70;0.70;;;-1.10;82.60;;;;;;5055687;28;20174;-79
2022/01/12 04:43:42;;;;;;;1.00;1.00;;;-1.10;82.70;;;;;;5049841;28;20187;-79
2022/01/12 04:46:22;;;;;;;0.57;0.57;;;-1.10;82.50;;;;;;5051772;28;20184;-79
2022/01/12 04:51:33;;;;;;;0.80;0.63;;;-1.10;82.40;;;;;;5050659;28;20209;-78
2022/01/12 04:53:59;;;;;;;0.70;0.70;;;-1.20;82.30;;;;;;5051522;28;20178;-79
2022/01/12 04:56:28;;;;;;;2.93;0.70;;;-1.20;82.20;;;;;;5056999;28;20221;-78
2022/01/12 04:58:54;;;;;;;0.70;0.70;;;-1.20;82.10;;;;;;5055260;28;20191;-78
2022/01/12 05:01:26;;;;;;;0.40;0.40;;;-1.20;82.10;;;;;;5051785;28;20176;-79
2022/01/12 05:14:57;;;;;;;0.40;0.40;;;-1.20;82.00;;;;;;5060965;28;20194;-79
2022/01/12 05:17:23;;;;;;;0.60;0.60;;;-1.20;82.10;;;;;;5055628;28;20742;-78
2022/01/12 05:19:48;;;;;;;1.07;0.90;;;-1.30;82.10;;;;;;5065127;28;20262;-79
2022/01/12 05:22:14;;;;;;;1.80;0.90;;;-1.30;82.00;;;;;;5061593;28;20191;-79
2022/01/12 05:24:40;;;;;;;0.70;0.60;;;-1.30;81.90;;;;;;5046722;28;20602;-79
2022/01/12 05:27:05;;;;;;;0.70;0.70;;;-1.30;82.00;;;;;;5056048;28;20218;-78
2022/01/12 05:29:31;;;;;;;0.63;0.63;;;-1.30;82.00;;;;;;5047960;28;20200;-79
2022/01/12 05:31:57;;;;;;;0.30;0.30;;;-1.30;82.10;;;;;;5067203;28;20222;-79
2022/01/12 05:34:25;;;;;;;1.43;1.00;;;-1.30;82.20;;;;;;5050938;28;20202;-78
2022/01/12 05:36:50;;;;;;;1.23;1.20;;;-1.30;82.40;;;;;;5061295;28;20199;-77
2022/01/12 05:39:16;;;;;;;0.83;0.70;;;-1.30;82.50;;;;;;5060560;28;20761;-78
2022/01/12 05:41:42;;;;;;;0.50;0.50;;;-1.40;82.40;;;;;;5060764;28;20198;-78
2022/01/12 05:44:08;;;;;;;0.60;0.60;;;-1.40;82.30;;;;;;5048666;28;20240;-78
2022/01/12 05:46:37;;;;;;;2.40;0.87;;;-1.40;82.10;;;;;;5041681;28;20241;-77
2022/01/12 05:51:47;;;;;;;1.00;1.00;;;-1.60;82.20;;;;;;5050403;28;20232;-78
2022/01/12 05:54:13;;;;;;;2.60;0.63;;;-1.60;82.50;;;;;;5043492;28;20184;-78
2022/01/12 05:56:38;;;;;;;2.17;0.70;;;-1.70;82.40;;;;;;5053105;28;20259;-77
2022/01/12 05:59:04;;;;;;;0.83;0.83;;;-1.70;82.40;;;;;;5050840;28;20570;-78
2022/01/12 06:01:30;;;;;;;0.47;0.47;;;-1.80;82.50;;;;;;5046036;28;20239;-78
2022/01/12 06:03:57;;;;;;;1.37;1.10;;;-1.80;82.90;;;;;;5049572;28;20187;-77
2022/01/12 06:06:22;;;;;;;2.07;0.77;;;-1.80;83.00;;;;;;5050430;28;20681;-78
2022/01/12 06:08:48;;;;;;;1.20;1.00;;;-1.80;83.10;;;;;;5053181;28;20180;-78
2022/01/12 06:11:14;;;;;;;1.10;1.10;;;-1.90;83.10;;;;;;5049358;28;20188;-78
2022/01/12 06:13:39;;;;;;;3.10;1.47;;;-1.90;83.10;;;;;;5049464;28;20614;-77
2022/01/12 06:16:05;;;;;;;0.60;0.60;;;-1.90;83.00;;;;;;5051701;28;20641;-78
2022/01/12 06:18:31;;;;;;;0.83;0.50;;;-1.90;83.00;;;;;;5051635;28;20176;-77
2022/01/12 06:20:56;;;;;;;0.40;0.30;;;-1.90;82.90;;;;;;5053302;28;20268;-80
2022/01/12 06:23:22;;;;;;;0.93;0.90;;;-1.90;83.00;;;;;;5060042;28;20728;-80
2022/01/12 06:25:48;;;;;;;0.67;0.67;;;-1.90;83.10;;;;;;5058263;28;20189;-78
2022/01/12 06:31:10;;;;;;;0.83;0.67;;;-1.90;83.40;;;;;;5053421;28;20228;-78
2022/01/12 06:33:44;;;;;;;1.23;0.90;;;-1.90;83.90;;;;;;5050534;28;20571;-77
2022/01/12 06:36:15;;;;;;;0.47;0.47;;;-1.90;83.60;;;;;;5045531;28;20574;-75
2022/01/12 06:38:41;;;;;;;0.70;0.70;;;-1.80;83.60;;;;;;5055809;28;20599;-75
2022/01/12 06:41:09;;;;;;;0.90;0.90;;;-1.70;83.80;;;;;;5056845;28;20584;-75
2022/01/12 06:43:35;;;;;;;0.57;0.57;;;-1.60;84.00;;;;;;5056167;28;20179;-75
2022/01/12 06:46:02;;;;;;;1.30;1.20;;;-1.40;83.90;;;;;;5050786;28;20722;-73
2022/01/12 06:48:28;;;;;;;1.10;0.97;;;-1.20;84.30;;;;;;5046269;28;20190;-75
2022/01/12 06:50:54;;;;;;;0.70;0.70;;;-0.80;84.50;;;;;;5052550;28;20176;-79
2022/01/12 06:53:20;;;;;;;1.10;0.97;;;-0.50;83.80;;;;;;5056867;28;20199;-77
2022/01/12 06:55:46;;;;;;;1.33;1.20;;;0.00;83.70;;;;;;5047299;28;20624;-78
2022/01/12 06:58:11;;;;;;;1.50;1.40;;;0.40;82.70;;;;;;5050190;28;20197;-76
2022/01/12 07:00:38;;;;;;;1.07;1.07;;;0.70;81.10;;;;;;5052183;28;20198;-76
2022/01/12 07:03:03;;;;;;;1.80;1.63;;;1.00;79.40;;;;;;5047741;28;20196;-76
2022/01/12 07:05:29;;;;;;;2.30;0.67;;;1.00;77.40;;;;;;5053050;28;20183;-76
2022/01/12 07:07:55;;;;;;;1.30;1.30;;;0.90;76.30;;;;;;5050059;28;20345;-76
2022/01/12 07:10:20;;;;;;;2.00;1.33;;;0.80;76.20;;;;;;5052465;28;20176;-75
2022/01/12 07:12:46;;;;;;;2.10;2.00;;;0.70;76.40;;;;;;5051538;28;20189;-76
2022/01/12 07:15:12;;;;;;;0.97;0.97;;;0.50;76.40;;;;;;5054697;28;20175;-76
2022/01/12 07:17:37;;;;;;;2.73;1.50;;;0.40;76.70;;;;;;5050783;28;20203;-76
2022/01/12 07:20:04;;;;;;;1.30;0.90;;;0.30;76.90;;;;;;5054410;28;20657;-76
2022/01/12 07:22:30;;;;;;;3.53;1.03;;;0.20;76.90;;;;;;5049416;28;20621;-75
2022/01/12 07:24:56;;;;;;;0.80;0.80;;;0.10;77.30;;;;;;5054705;28;20185;-76
2022/01/12 07:27:22;;;;;;;0.97;0.90;;;0.00;77.30;;;;;;5055063;28;20211;-75
2022/01/12 07:29:47;;;;;;;1.50;0.90;;;-0.10;77.50;;;;;;5046867;28;21147;-75
2022/01/12 07:32:13;;;;;;;1.00;0.87;;;-0.10;77.50;;;;;;5051766;28;20271;-76
2022/01/12 07:34:39;;;;;;;1.03;1.03;;;-0.20;77.60;;;;;;5055476;28;20623;-75
2022/01/12 07:37:05;;;;;;;1.17;0.93;;;-0.30;78.00;;;;;;5053351;28;20258;-76
2022/01/12 07:39:31;;;;;;;1.20;0.87;;;-0.30;78.20;;;;;;5049535;28;20180;-76
2022/01/12 07:41:57;;;;;;;1.20;1.10;;;-0.30;78.50;;;;;;5051564;28;20183;-76
2022/01/12 07:44:23;;;;;;;1.80;1.63;;;-0.20;78.30;;;;;;5059214;28;20183;-75
2022/01/12 07:46:49;;;;;;;0.97;0.67;;;-0.10;78.10;;;;;;5054883;28;20252;-76
2022/01/12 07:49:15;;;;;;;1.53;1.53;;;0.20;78.40;;;;;;5056672;28;20263;-76
2022/01/12 07:51:41;;;;;;;5.07;1.63;;;0.50;78.60;;;;;;5052164;28;20190;-76
2022/01/12 07:54:06;;;;;;;1.57;1.07;;;0.80;77.60;;;;;;5054567;28;20177;-75
2022/01/12 07:56:32;;;;;;;0.97;0.87;;;1.20;76.90;;;;;;5056798;28;20195;-77
2022/01/12 07:58:58;;;;;;;0.87;0.87;;;1.40;75.70;;;;;;5052334;28;20238;-76
2022/01/12 08:01:24;;;;;;;1.27;1.20;;;1.90;77.40;;;;;;5065766;28;20194;-77
2022/01/12 08:03:50;;;;;;;1.77;1.37;;;2.60;77.10;;;;;;5049233;28;20197;-76
2022/01/12 08:06:16;;;;;;;1.13;1.13;;;3.30;76.60;;;;;;5051527;28;20186;-76
2022/01/12 08:08:42;;;;;;;8.90;1.13;;;4.00;73.90;;;;;;5051756;28;20217;-77
2022/01/12 08:11:07;;;;;;;1.27;1.17;;;4.70;71.50;;;;;;5047282;28;20211;-76
2022/01/12 08:13:33;;;;;;;1.80;1.50;;;5.10;69.20;;;;;;5053033;28;20723;-76
2022/01/12 08:15:59;;;;;;;1.37;1.03;;;5.50;68.30;;;;;;5041814;28;20587;-77
2022/01/12 08:18:25;;;;;;;0.80;0.80;;;5.80;66.40;;;;;;5046905;28;20198;-77
2022/01/12 08:20:51;;;;;;;0.80;0.80;;;5.80;65.30;;;;;;5054873;28;20179;-76
2022/01/12 08:23:17;;;;;;;1.70;1.60;;;5.60;64.50;;;;;;5047318;28;20210;-76
2022/01/12 08:25:42;;;;;;;1.37;1.27;;;5.20;64.20;;;;;;5054094;28;20270;-76
2022/01/12 08:28:08;;;;;;;1.23;1.10;;;4.70;64.10;;;;;;5047154;28;20207;-77
2022/01/12 08:30:35;;;;;;;1.83;1.20;;;4.30;65.10;;;;;;5050527;28;20251;-77
2022/01/12 08:33:03;;;;;;;1.30;1.07;;;3.90;65.30;;;;;;5048917;28;20171;-77
2022/01/12 08:35:28;;;;;;;1.00;1.00;;;3.50;65.60;;;;;;5046247;28;20180;-77
2022/01/12 08:37:54;;;;;;;1.30;1.20;;;3.20;65.80;;;;;;5055694;28;20183;-77
2022/01/12 08:40:21;;;;;;;1.33;1.10;;;2.80;66.40;;;;;;5047412;28;20180;-76
2022/01/12 08:42:47;;;;;;;1.40;1.13;;;2.50;67.20;;;;;;5050807;28;20311;-76
2022/01/12 08:45:15;;;;;;;1.53;1.10;;;2.20;67.60;;;;;;5048852;28;20672;-77
2022/01/12 08:47:41;;;;;;;1.23;1.23;;;2.00;68.10;;;;;;5053261;28;20251;-76
2022/01/12 08:50:08;;;;;;;2.60;1.17;;;1.70;69.00;;;;;;5052813;28;20577;-78
2022/01/12 08:52:34;;;;;;;2.40;1.27;;;1.50;69.70;;;;;;5052250;28;20266;-77
2022/01/12 08:55:00;;;;;;;1.13;0.77;;;1.30;70.30;;;;;;5053876;28;20188;-77
2022/01/12 08:57:30;;;;;;;1.33;1.07;;;1.30;70.70;;;;;;5047663;28;20202;-77
2022/01/12 09:00:00;;;;;;;1.53;1.30;;;1.20;70.80;;;;;;5047913;28;20175;-77
2022/01/12 09:02:27;;;;;;;0.60;0.60;;;1.20;71.10;;;;;;5050447;28;20257;-77
2022/01/12 09:04:53;;;;;;;2.00;1.03;;;1.20;71.30;;;;;;5046534;28;20202;-77
2022/01/12 09:07:19;;;;;;;1.47;0.90;;;1.30;70.90;;;;;;5047309;28;20745;-77
2022/01/12 09:09:45;;;;;;;0.90;0.90;;;1.20;70.60;;;;;;5048518;28;20203;-77
2022/01/12 09:12:10;;;;;;;1.50;0.87;;;1.20;70.80;;;;;;5053813;28;20178;-76
2022/01/12 09:14:36;;;;;;;0.80;0.80;;;1.10;71.00;;;;;;5046798;28;20202;-76
2022/01/12 09:17:03;;;;;;;0.93;0.83;;;1.00;70.80;;;;;;5045993;28;20607;-77
2022/01/12 09:19:29;;;;;;;0.93;0.93;;;1.00;71.00;;;;;;5049309;28;20602;-77
2022/01/12 09:21:56;;;;;;;0.83;0.83;;;0.90;70.80;;;;;;5044000;28;20184;-77
2022/01/12 09:24:22;;;;;;;0.67;0.67;;;0.90;70.90;;;;;;5040797;28;20717;-77
2022/01/12 09:26:49;;;;;;;0.93;0.87;;;0.90;71.20;;;;;;5052288;28;20209;-76
2022/01/12 09:29:17;;;;;;;1.67;0.87;;;0.90;71.60;;;;;;5048228;28;20185;-77
2022/01/12 09:31:43;;;;;;;0.87;0.83;;;0.90;71.80;;;;;;5066118;28;20763;-77
2022/01/12 09:34:09;;;;;;;0.40;0.40;;;0.90;71.80;;;;;;5051552;28;20281;-77
2022/01/12 09:36:34;;;;;;;0.53;0.53;;;0.90;71.60;;;;;;5051241;28;20731;-77
2022/01/12 09:39:01;;;;;;;1.33;0.50;;;0.90;71.70;;;;;;5051003;28;20182;-76
2022/01/12 09:41:27;;;;;;;0.67;0.67;;;0.90;71.80;;;;;;5050764;28;20214;-76
2022/01/12 09:43:54;;;;;;;1.70;0.87;;;1.00;72.00;;;;;;5048022;28;20657;-76
2022/01/12 09:46:25;;;;;;;0.80;0.80;;;1.10;72.20;;;;;;5052410;28;20179;-76
2022/01/12 09:48:51;;;;;;;2.07;0.70;;;1.40;72.90;;;;;;5054902;28;20206;-76
2022/01/12 09:51:17;;;;;;;0.47;0.47;;;1.80;72.20;;;;;;5053060;28;20215;-76
2022/01/12 09:53:44;;;;;;;1.27;0.73;;;2.20;71.50;;;;;;5055512;28;20216;-76
2022/01/12 09:56:17;;;;;;;2.70;1.07;;;2.80;70.80;;;;;;5056889;28;20187;-76
2022/01/12 09:58:43;;;;;;;0.60;0.60;;;3.40;70.00;;;;;;5054108;28;20217;-76
2022/01/12 10:01:09;;;;;;;0.83;0.83;;;3.90;69.50;;;;;;5051858;28;20182;-76
2022/01/12 10:03:36;;;;;;;0.80;0.80;;;4.30;68.40;;;;;;5055128;28;20221;-78
2022/01/12 10:06:13;;;;;;;0.80;0.80;;;4.50;66.80;;;;;;5051690;28;20186;-77
2022/01/12 10:08:40;;;;;;;0.60;0.60;;;4.40;65.80;;;;;;5052021;28;20186;-77
2022/01/12 10:11:09;;;;;;;0.67;0.67;;;4.20;65.40;;;;;;5052896;28;20273;-77
2022/01/12 10:13:37;;;;;;;0.70;0.70;;;4.00;64.90;;;;;;5053822;28;20183;-77
2022/01/12 10:16:17;;;;;;;0.97;0.83;;;3.80;64.90;;;;;;5057600;28;20182;-77
2022/01/12 10:18:51;;;;;;;0.70;0.70;;;3.50;65.70;;;;;;5067899;28;20727;-77
2022/01/12 10:21:33;;;;;;;0.70;0.70;;;3.40;65.60;;;;;;5053708;28;20183;-77
2022/01/12 10:24:12;;;;;;;0.80;0.80;;;3.20;65.80;;;;;;5054672;28;20179;-77
2022/01/12 10:26:43;;;;;;;0.40;0.40;;;3.00;66.30;;;;;;5050732;28;20211;-77
2022/01/12 10:29:18;;;;;;;1.63;0.90;;;3.00;66.50;;;;;;5054660;28;20194;-77
2022/01/12 10:31:53;;;;;;;0.50;0.50;;;2.90;67.20;;;;;;5055002;28;20242;-76
2022/01/12 10:34:22;;;;;;;1.90;1.20;;;2.80;67.50;;;;;;5057910;28;20182;-77
2022/01/12 10:36:49;;;;;;;0.60;0.60;;;2.70;67.10;;;;;;5050530;28;20194;-76
2022/01/12 10:39:16;;;;;;;2.37;0.93;;;2.60;67.30;;;;;;5054198;28;20661;-77
2022/01/12 10:41:54;;;;;;;0.87;0.80;;;2.60;67.30;;;;;;5056390;28;20695;-76
2022/01/12 10:44:22;;;;;;;0.60;0.60;;;2.60;67.80;;;;;;5051950;28;20183;-78
2022/01/12 10:46:48;;;;;;;0.67;0.67;;;2.60;67.90;;;;;;5055406;28;20409;-77
2022/01/12 10:49:20;;;;;;;0.70;0.70;;;2.50;67.60;;;;;;5050190;28;20192;-78
2022/01/12 10:51:54;;;;;;;0.83;0.83;;;2.50;67.90;;;;;;5051241;28;20250;-77
2022/01/12 10:54:21;;;;;;;0.80;0.80;;;2.50;67.80;;;;;;5057149;28;20667;-77
2022/01/12 10:56:46;;;;;;;2.03;0.70;;;2.40;67.70;;;;;;5051990;28;20271;-78
2022/01/12 10:59:20;;;;;;;0.70;0.70;;;2.40;67.90;;;;;;5053937;28;20266;-78
2022/01/12 11:01:46;;;;;;;0.60;0.60;;;2.30;68.10;;;;;;5054032;28;20256;-77
2022/01/12 11:04:12;;;;;;;1.00;0.90;;;2.30;68.10;;;;;;5057780;28;20179;-76
2022/01/12 11:06:39;;;;;;;2.77;1.13;;;2.40;67.50;;;;;;5048322;28;20203;-77
2022/01/12 11:09:05;;;;;;;0.50;0.50;;;2.30;67.20;;;;;;5051426;28;20269;-78
2022/01/12 11:11:31;;;;;;;1.30;0.50;;;2.20;67.50;;;;;;5052818;28;20256;-77
2022/01/12 11:13:57;;;;;;;1.10;0.60;;;2.20;67.60;;;;;;5057906;28;20190;-77
2022/01/12 11:16:26;;;;;;;0.73;0.73;;;2.20;67.80;;;;;;5056701;28;20325;-77
2022/01/12 11:18:54;;;;;;;0.87;0.60;;;2.20;68.20;;;;;;5052850;28;20180;-76
2022/01/12 11:21:45;;;;;;;0.60;0.60;;;2.20;68.00;;;;;;5053674;28;21558;-76
2022/01/12 11:24:14;;;;;;;1.47;0.90;;;2.20;67.90;;;;;;5047596;28;20260;-77
2022/01/12 11:26:49;;;;;;;0.77;0.70;;;2.20;67.80;;;;;;5052594;28;20316;-77
2022/01/12 11:29:34;;;;;;;0.97;0.93;;;2.10;67.80;;;;;;5052172;28;20188;-76
2022/01/12 11:32:08;;;;;;;1.03;0.90;;;2.10;68.10;;;;;;5049942;28;21050;-77
2022/01/12 11:34:34;;;;;;;0.80;0.50;;;2.10;67.90;;;;;;5052397;28;20185;-79
2022/01/12 11:37:11;;;;;;;0.97;0.90;;;2.00;68.10;;;;;;5056568;28;20670;-77
2022/01/12 11:39:36;;;;;;;1.13;0.77;;;2.00;68.20;;;;;;5055350;28;20190;-77
2022/01/12 11:42:02;;;;;;;0.60;0.60;;;2.00;68.10;;;;;;5054632;28;20182;-78
2022/01/12 11:44:36;;;;;;;0.57;0.57;;;2.00;67.80;;;;;;5053805;28;20179;-78
2022/01/12 11:47:04;;;;;;;0.80;0.50;;;2.00;67.70;;;;;;5052663;28;20299;-77
2022/01/12 11:49:44;;;;;;;0.60;0.60;;;2.00;67.90;;;;;;5053023;28;20194;-77
2022/01/12 11:52:26;;;;;;;0.53;0.47;;;1.90;68.40;;;;;;5053645;28;20184;-78
2022/01/12 11:54:53;;;;;;;0.47;0.47;;;2.00;68.20;;;;;;5052734;28;20187;-77
2022/01/12 11:57:31;;;;;;;0.50;0.50;;;2.00;68.20;;;;;;5053483;28;20192;-77
2022/01/12 12:00:00;;;;;;;0.30;0.30;;;2.10;68.40;;;;;;5055341;28;20189;-77
2022/01/12 12:02:39;;;;;;;0.60;0.60;;;2.20;68.40;;;;;;5047923;28;20189;-77
2022/01/12 12:05:09;;;;;;;0.67;0.67;;;2.30;68.80;;;;;;5054968;28;20300;-77
2022/01/12 12:07:48;;;;;;;0.90;0.90;;;2.50;68.90;;;;;;5052033;28;20218;-77
2022/01/12 12:10:20;;;;;;;1.40;0.90;;;2.70;67.50;;;;;;5065118;28;20187;-78
2022/01/12 12:12:47;;;;;;;0.80;0.80;;;2.70;66.40;;;;;;5051097;28;20184;-77
2022/01/12 12:15:13;;;;;;;1.87;0.97;;;2.60;66.10;;;;;;5050624;28;20184;-78
2022/01/12 12:17:41;;;;;;;0.57;0.57;;;2.50;66.30;;;;;;5053763;28;20277;-77
2022/01/12 12:20:11;;;;;;;0.87;0.63;;;2.40;66.80;;;;;;5054813;28;20175;-78
2022/01/12 12:22:40;;;;;;;0.60;0.60;;;2.30;67.00;;;;;;5044914;28;20188;-77
2022/01/12 12:25:06;;;;;;;0.70;0.70;;;2.30;67.30;;;;;;5051824;28;20180;-78
2022/01/12 12:27:34;;;;;;;0.83;0.83;;;2.20;66.80;;;;;;5041414;28;20247;-78
2022/01/12 12:30:03;;;;;;;0.60;0.40;;;2.20;66.90;;;;;;5046931;28;20641;-78
2022/01/12 12:32:45;;;;;;;0.67;0.67;;;2.10;67.50;;;;;;5045896;28;20573;-77
2022/01/12 12:35:14;;;;;;;0.43;0.43;;;2.10;67.10;;;;;;5047164;28;20237;-78
2022/01/12 12:37:48;;;;;;;0.60;0.60;;;2.10;67.70;;;;;;5043705;28;20941;-77
2022/01/12 12:40:36;;;;;;;0.77;0.77;;;2.00;67.00;;;;;;5048573;28;20178;-77
2022/01/12 12:43:01;;;;;;;1.00;1.00;;;2.00;67.10;;;;;;5044191;28;20188;-77
2022/01/12 12:45:42;;;;;;;1.43;1.20;;;2.00;67.10;;;;;;5055663;28;20608;-78
2022/01/12 12:48:09;;;;;;;0.80;0.80;;;1.90;67.00;;;;;;5043406;28;20298;-78
2022/01/12 12:50:36;;;;;;;0.70;0.70;;;1.80;67.10;;;;;;5046040;28;20187;-77
2022/01/12 12:53:02;;;;;;;0.73;0.43;;;1.80;67.00;;;;;;5044482;28;20181;-77
2022/01/12 12:55:40;;;;;;;0.33;0.30;;;1.70;67.00;;;;;;5045646;28;20247;-77
2022/01/12 12:58:07;;;;;;;0.50;0.50;;;1.60;67.30;;;;;;5042410;28;20806;-77
2022/01/12 13:00:33;;;;;;;1.13;0.53;;;1.60;67.80;;;;;;5046809;28;20180;-76
2022/01/12 13:03:00;;;;;;;0.80;0.80;;;1.60;67.90;;;;;;5043752;28;20222;-77
2022/01/12 13:05:34;;;;;;;0.53;0.53;;;1.60;67.90;;;;;;5049365;28;20178;-77
2022/01/12 13:08:01;;;;;;;0.80;0.60;;;1.60;67.70;;;;;;5046625;28;20211;-77
2022/01/12 13:10:29;;;;;;;0.70;0.70;;;1.70;68.30;;;;;;5049053;28;20183;-77
2022/01/12 13:13:00;;;;;;;0.67;0.63;;;1.70;68.10;;;;;;5048974;28;20175;-76
2022/01/12 13:15:29;;;;;;;0.80;0.80;;;1.80;67.80;;;;;;5048784;28;20309;-76
2022/01/12 13:18:03;;;;;;;0.70;0.70;;;1.80;67.50;;;;;;5050106;28;20689;-76
2022/01/12 13:23:17;;;;;;;0.80;0.80;;;1.80;67.10;;;;;;5049229;28;20185;-76
2022/01/12 13:25:43;;;;;;;0.63;0.63;;;1.80;67.50;;;;;;5044764;28;20217;-76
2022/01/12 13:28:09;;;;;;;0.73;0.73;;;1.80;67.70;;;;;;5039148;28;20291;-76
2022/01/12 13:30:54;;;;;;;0.80;0.80;;;1.80;67.60;;;;;;5045585;28;20593;-76
2022/01/12 13:33:25;;;;;;;1.17;0.90;;;1.70;68.00;;;;;;5049288;28;20621;-76
2022/01/12 13:35:51;;;;;;;0.50;0.50;;;1.70;67.90;;;;;;5048588;28;20222;-77
2022/01/12 13:38:29;;;;;;;1.00;0.90;;;1.60;67.80;;;;;;5045866;28;20179;-77
2022/01/12 13:40:55;;;;;;;0.90;0.80;;;1.50;68.60;;;;;;5040670;28;21415;-76
2022/01/12 13:43:24;;;;;;;1.00;1.00;;;1.50;68.60;;;;;;5046473;28;20190;-77
2022/01/12 13:45:59;;;;;;;1.77;0.83;;;1.40;68.30;;;;;;5047558;28;20753;-77
2022/01/12 13:48:31;;;;;;;2.53;0.57;;;1.30;68.90;;;;;;5041780;28;20292;-77
2022/01/12 13:50:59;;;;;;;0.60;0.60;;;1.30;68.50;;;;;;5043230;28;20192;-77
2022/01/12 13:53:33;;;;;;;0.43;0.43;;;1.20;69.00;;;;;;5052017;28;20199;-78
2022/01/12 13:55:58;;;;;;;1.23;0.83;;;1.20;69.40;;;;;;5043966;28;20182;-77
2022/01/12 13:58:29;;;;;;;0.67;0.53;;;1.20;69.80;;;;;;5042760;28;20590;-77
2022/01/12 14:01:10;;;;;;;1.20;1.00;;;1.20;69.40;;;;;;5048985;28;20778;-77
2022/01/12 14:03:49;;;;;;;1.40;1.17;;;1.10;68.90;;;;;;5044829;28;20591;-77
2022/01/12 14:06:21;;;;;;;1.17;1.07;;;1.10;68.90;;;;;;5042344;28;20179;-77
2022/01/12 14:08:53;;;;;;;1.03;1.03;;;1.00;69.20;;;;;;5046238;28;20195;-77
2022/01/12 14:11:20;;;;;;;1.00;1.00;;;1.00;69.30;;;;;;5039701;28;20203;-77
2022/01/12 14:13:47;;;;;;;0.97;0.60;;;1.00;69.10;;;;;;5048531;28;20180;-77
2022/01/12 14:16:14;;;;;;;1.03;1.03;;;0.90;69.00;;;;;;5044853;28;20195;-77
2022/01/12 14:18:41;;;;;;;1.00;1.00;;;0.90;69.20;;;;;;5047745;28;20211;-77
2022/01/12 14:21:19;;;;;;;1.13;0.97;;;0.90;69.30;;;;;;5042428;28;20650;-78
2022/01/12 14:23:45;;;;;;;1.30;1.23;;;0.80;69.70;;;;;;5050203;28;20178;-77
2022/01/12 14:26:28;;;;;;;0.70;0.70;;;0.80;69.70;;;;;;5047543;28;20175;-78
2022/01/12 14:28:55;;;;;;;1.10;0.90;;;0.80;69.70;;;;;;5047014;28;20670;-78